createdAt,value
2017-06-29T00:00:48.141Z,19.32
2017-06-29T00:01:47.871Z,19.4
2017-06-29T00:02:48.531Z,19.32
2017-06-29T00:03:47.953Z,19.35
2017-06-29T00:04:48.295Z,19.33
2017-06-29T00:05:48.652Z,19.28
2017-06-29T00:06:48.071Z,19.29
2017-06-29T00:07:48.423Z,19.35
2017-06-29T00:08:48.465Z,19.25
2017-06-29T00:09:48.495Z,19.33
2017-06-29T00:10:48.232Z,19.17
2017-06-29T00:11:48.575Z,19.21
2017-06-29T00:12:48.618Z,19.25
2017-06-29T00:13:48.661Z,19.29
2017-06-29T00:14:48.701Z,19.29
2017-06-29T00:15:48.443Z,19.25
2017-06-29T00:16:48.778Z,19.24
2017-06-29T00:17:48.820Z,19.25
2017-06-29T00:18:48.550Z,19.25
2017-06-29T00:19:48.599Z,19.18
2017-06-29T00:20:48.630Z,19.25
2017-06-29T00:21:48.667Z,19.2
2017-06-29T00:22:48.708Z,19.2
2017-06-29T00:23:48.752Z,19.23
2017-06-29T00:24:49.100Z,19.18
2017-06-29T00:25:48.830Z,19.2
2017-06-29T00:26:48.870Z,19.21
2017-06-29T00:27:49.218Z,19.14
2017-06-29T00:28:49.260Z,19.05
2017-06-29T00:29:49.612Z,19.01
2017-06-29T00:30:49.029Z,18.98
2017-06-29T00:31:49.070Z,19.06
2017-06-29T00:32:49.111Z,19.05
2017-06-29T00:33:49.770Z,19.1
2017-06-29T00:34:49.503Z,19.11
2017-06-29T00:35:49.228Z,19.06
2017-06-29T00:36:49.273Z,19.06
2017-06-29T00:37:49.308Z,19.02
2017-06-29T00:38:49.350Z,18.99
2017-06-29T00:39:50.008Z,18.94
2017-06-29T00:40:49.431Z,18.98
2017-06-29T00:41:49.774Z,18.8
2017-06-29T00:42:49.836Z,18.8
2017-06-29T00:43:49.866Z,18.94
2017-06-29T00:44:49.588Z,18.87
2017-06-29T00:45:49.631Z,18.9
2017-06-29T00:46:49.973Z,18.83
2017-06-29T00:47:50.015Z,18.9
2017-06-29T00:48:50.366Z,18.94
2017-06-29T00:49:49.786Z,18.86
2017-06-29T00:50:50.145Z,18.83
2017-06-29T00:51:49.871Z,18.84
2017-06-29T00:52:49.904Z,18.79
2017-06-29T00:53:49.946Z,18.87
2017-06-29T00:54:50.295Z,18.83
2017-06-29T00:55:50.335Z,18.83
2017-06-29T00:56:50.065Z,18.8
2017-06-29T00:57:50.417Z,18.82
2017-06-29T00:58:50.453Z,18.87
2017-06-29T00:59:50.184Z,18.83
2017-06-29T01:00:50.561Z,18.82
2017-06-29T01:01:50.574Z,18.79
2017-06-29T01:02:50.305Z,18.83
2017-06-29T01:03:50.652Z,18.79
2017-06-29T01:04:50.386Z,18.86
2017-06-29T01:05:50.423Z,18.82
2017-06-29T01:06:50.776Z,18.76
2017-06-29T01:07:50.504Z,18.84
2017-06-29T01:08:50.546Z,18.79
2017-06-29T01:09:51.107Z,18.84
2017-06-29T01:10:50.931Z,18.8
2017-06-29T01:11:50.662Z,18.7
2017-06-29T01:12:51.012Z,18.86
2017-06-29T01:13:50.747Z,18.79
2017-06-29T01:14:50.782Z,18.83
2017-06-29T01:15:51.174Z,18.73
2017-06-29T01:16:51.176Z,18.79
2017-06-29T01:17:50.901Z,18.79
2017-06-29T01:18:51.563Z,18.73
2017-06-29T01:19:51.288Z,18.68
2017-06-29T01:20:51.020Z,18.68
2017-06-29T01:21:51.064Z,18.82
2017-06-29T01:22:51.101Z,18.77
2017-06-29T01:23:51.752Z,18.74
2017-06-29T01:24:51.179Z,18.82
2017-06-29T01:25:51.221Z,18.72
2017-06-29T01:26:51.565Z,18.72
2017-06-29T01:27:51.299Z,18.82
2017-06-29T01:28:51.338Z,18.72
2017-06-29T01:29:51.685Z,18.68
2017-06-29T01:30:51.416Z,18.72
2017-06-29T01:31:51.459Z,18.62
2017-06-29T01:32:51.499Z,18.65
2017-06-29T01:33:51.841Z,18.62
2017-06-29T01:34:51.578Z,18.67
2017-06-29T01:35:51.921Z,18.73
2017-06-29T01:36:51.657Z,18.61
2017-06-29T01:37:52.004Z,18.58
2017-06-29T01:38:52.047Z,18.65
2017-06-29T01:39:52.083Z,18.61
2017-06-29T01:40:51.813Z,18.55
2017-06-29T01:41:51.855Z,18.64
2017-06-29T01:42:51.912Z,18.52
2017-06-29T01:43:52.242Z,18.64
2017-06-29T01:44:51.971Z,18.65
2017-06-29T01:45:52.013Z,18.59
2017-06-29T01:46:52.057Z,18.46
2017-06-29T01:47:52.402Z,18.58
2017-06-29T01:48:52.438Z,18.5
2017-06-29T01:49:52.174Z,18.49
2017-06-29T01:50:52.211Z,18.58
2017-06-29T01:51:52.869Z,18.62
2017-06-29T01:52:52.289Z,18.47
2017-06-29T01:53:52.947Z,18.59
2017-06-29T01:54:52.368Z,18.61
2017-06-29T01:55:52.718Z,18.61
2017-06-29T01:56:52.447Z,18.5
2017-06-29T01:57:52.794Z,18.44
2017-06-29T01:58:53.147Z,18.47
2017-06-29T01:59:52.882Z,18.44
2017-06-29T02:00:52.611Z,18.44
2017-06-29T02:01:52.956Z,18.43
2017-06-29T02:02:52.990Z,18.57
2017-06-29T02:03:52.726Z,18.47
2017-06-29T02:04:53.071Z,18.39
2017-06-29T02:05:53.110Z,18.5
2017-06-29T02:06:52.845Z,18.46
2017-06-29T02:07:53.103Z,18.44
2017-06-29T02:08:53.233Z,18.43
2017-06-29T02:09:52.963Z,18.46
2017-06-29T02:10:53.006Z,18.47
2017-06-29T02:11:53.042Z,18.47
2017-06-29T02:12:53.079Z,18.43
2017-06-29T02:13:53.427Z,18.46
2017-06-29T02:14:53.159Z,18.43
2017-06-29T02:15:53.197Z,18.39
2017-06-29T02:16:53.546Z,18.36
2017-06-29T02:17:53.284Z,18.37
2017-06-29T02:18:53.316Z,18.39
2017-06-29T02:19:53.358Z,18.34
2017-06-29T02:20:53.398Z,18.36
2017-06-29T02:21:54.056Z,18.4
2017-06-29T02:22:53.476Z,18.37
2017-06-29T02:23:53.515Z,18.29
2017-06-29T02:24:53.558Z,18.31
2017-06-29T02:25:53.597Z,18.33
2017-06-29T02:26:53.636Z,18.28
2017-06-29T02:27:53.986Z,18.29
2017-06-29T02:28:53.714Z,18.25
2017-06-29T02:29:53.756Z,18.21
2017-06-29T02:30:53.792Z,18.13
2017-06-29T02:31:53.838Z,18.15
2017-06-29T02:32:54.180Z,18.21
2017-06-29T02:33:53.912Z,18.22
2017-06-29T02:34:53.948Z,18.13
2017-06-29T02:35:53.990Z,18.13
2017-06-29T02:36:54.028Z,18.22
2017-06-29T02:37:54.071Z,18.19
2017-06-29T02:38:54.421Z,18.22
2017-06-29T02:39:54.150Z,18.22
2017-06-29T02:40:54.193Z,18.19
2017-06-29T02:41:54.533Z,18.22
2017-06-29T02:42:54.579Z,18.15
2017-06-29T02:43:54.303Z,18.15
2017-06-29T02:44:54.351Z,18.15
2017-06-29T02:45:54.381Z,18.18
2017-06-29T02:46:54.731Z,18.17
2017-06-29T02:47:54.689Z,18.21
2017-06-29T02:48:54.507Z,18.21
2017-06-29T02:49:54.543Z,18.18
2017-06-29T02:50:54.584Z,18.13
2017-06-29T02:51:54.624Z,18.19
2017-06-29T02:52:54.975Z,18.17
2017-06-29T02:53:54.703Z,18.17
2017-06-29T02:54:54.741Z,18.13
2017-06-29T02:55:54.785Z,18.15
2017-06-29T02:56:55.127Z,18.17
2017-06-29T02:57:55.166Z,18.19
2017-06-29T02:58:55.202Z,18.29
2017-06-29T02:59:55.242Z,18.29
2017-06-29T03:00:55.592Z,18.27
2017-06-29T03:01:55.016Z,18.28
2017-06-29T03:02:55.064Z,18.34
2017-06-29T03:03:55.104Z,18.43
2017-06-29T03:04:55.444Z,18.39
2017-06-29T03:05:55.173Z,18.36
2017-06-29T03:06:55.213Z,18.39
2017-06-29T03:07:55.256Z,18.43
2017-06-29T03:08:55.302Z,18.42
2017-06-29T03:09:55.345Z,18.4
2017-06-29T03:10:55.376Z,18.39
2017-06-29T03:11:55.414Z,18.44
2017-06-29T03:12:55.452Z,18.42
2017-06-29T03:13:55.800Z,18.5
2017-06-29T03:14:55.840Z,18.46
2017-06-29T03:15:55.573Z,18.46
2017-06-29T03:16:55.919Z,18.55
2017-06-29T03:17:55.663Z,18.5
2017-06-29T03:18:55.693Z,18.52
2017-06-29T03:19:56.040Z,18.49
2017-06-29T03:20:56.074Z,18.4
2017-06-29T03:21:55.810Z,18.47
2017-06-29T03:22:56.157Z,18.5
2017-06-29T03:23:55.890Z,18.5
2017-06-29T03:24:55.927Z,18.49
2017-06-29T03:25:55.962Z,18.5
2017-06-29T03:26:56.010Z,18.58
2017-06-29T03:27:56.353Z,18.58
2017-06-29T03:28:56.702Z,18.65
2017-06-29T03:29:56.435Z,18.65
2017-06-29T03:30:56.162Z,18.74
2017-06-29T03:31:56.204Z,18.7
2017-06-29T03:32:56.251Z,18.82
2017-06-29T03:33:56.591Z,18.73
2017-06-29T03:34:56.633Z,18.7
2017-06-29T03:35:56.365Z,18.73
2017-06-29T03:36:56.709Z,18.79
2017-06-29T03:37:56.447Z,18.79
2017-06-29T03:38:56.796Z,18.82
2017-06-29T03:39:56.837Z,18.79
2017-06-29T03:40:56.869Z,18.77
2017-06-29T03:41:56.610Z,18.82
2017-06-29T03:42:56.963Z,18.87
2017-06-29T03:43:56.685Z,18.9
2017-06-29T03:44:56.720Z,18.9
2017-06-29T03:45:56.764Z,18.87
2017-06-29T03:46:56.801Z,18.92
2017-06-29T03:47:56.840Z,18.91
2017-06-29T03:48:57.190Z,18.97
2017-06-29T03:49:56.924Z,18.94
2017-06-29T03:50:56.966Z,18.9
2017-06-29T03:51:57.005Z,18.98
2017-06-29T03:52:57.355Z,18.97
2017-06-29T03:53:57.389Z,18.91
2017-06-29T03:54:57.119Z,19.06
2017-06-29T03:55:57.468Z,19.02
2017-06-29T03:56:57.504Z,19.1
2017-06-29T03:57:57.240Z,19.02
2017-06-29T03:58:57.594Z,19.06
2017-06-29T03:59:57.320Z,18.99
2017-06-29T04:00:57.672Z,19.06
2017-06-29T04:01:57.704Z,19.01
2017-06-29T04:02:58.055Z,19.05
2017-06-29T04:03:57.481Z,19.02
2017-06-29T04:04:57.522Z,19.1
2017-06-29T04:05:57.564Z,19.06
2017-06-29T04:06:57.597Z,19.08
2017-06-29T04:07:57.640Z,19.13
2017-06-29T04:08:58.293Z,19.08
2017-06-29T04:09:57.717Z,19.23
2017-06-29T04:10:57.760Z,19.2
2017-06-29T04:11:58.416Z,19.21
2017-06-29T04:12:58.147Z,19.13
2017-06-29T04:13:57.878Z,19.2
2017-06-29T04:14:58.538Z,19.13
2017-06-29T04:15:57.955Z,19.15
2017-06-29T04:16:58.000Z,19.18
2017-06-29T04:17:58.652Z,19.14
2017-06-29T04:18:58.079Z,19.14
2017-06-29T04:19:58.737Z,19.18
2017-06-29T04:20:58.464Z,19.18
2017-06-29T04:21:58.506Z,19.23
2017-06-29T04:22:58.238Z,19.18
2017-06-29T04:23:58.584Z,19.2
2017-06-29T04:24:58.629Z,19.15
2017-06-29T04:25:58.666Z,19.18
2017-06-29T04:26:58.403Z,19.2
2017-06-29T04:27:58.444Z,19.14
2017-06-29T04:28:59.096Z,19.17
2017-06-29T04:29:58.827Z,19.21
2017-06-29T04:30:58.560Z,19.24
2017-06-29T04:31:58.614Z,19.25
2017-06-29T04:32:58.951Z,19.24
2017-06-29T04:33:58.990Z,19.24
2017-06-29T04:34:59.030Z,19.28
2017-06-29T04:35:58.758Z,19.32
2017-06-29T04:36:58.802Z,19.31
2017-06-29T04:37:59.150Z,19.33
2017-06-29T04:38:58.883Z,19.43
2017-06-29T04:39:59.225Z,19.33
2017-06-29T04:40:58.962Z,19.38
2017-06-29T04:42:00.411Z,19.38
2017-06-29T04:42:59.903Z,19.51
2017-06-29T04:43:59.870Z,19.51
2017-06-29T04:44:59.115Z,19.55
2017-06-29T04:45:59.161Z,19.54
2017-06-29T04:46:59.509Z,19.68
2017-06-29T04:47:59.246Z,19.63
2017-06-29T04:48:59.278Z,19.61
2017-06-29T04:49:59.630Z,19.66
2017-06-29T04:50:59.365Z,19.61
2017-06-29T04:51:59.710Z,19.73
2017-06-29T04:52:59.443Z,19.76
2017-06-29T04:53:59.788Z,19.75
2017-06-29T04:55:00.137Z,19.83
2017-06-29T04:55:59.569Z,19.87
2017-06-29T04:56:59.924Z,19.91
2017-06-29T04:58:00.272Z,19.97
2017-06-29T04:59:00.307Z,19.93
2017-06-29T04:59:59.953Z,20.03
2017-06-29T05:01:00.074Z,20
2017-06-29T05:01:59.807Z,20.03
2017-06-29T05:03:00.152Z,20.08
2017-06-29T05:03:59.887Z,20.06
2017-06-29T05:05:00.236Z,20.06
2017-06-29T05:05:59.966Z,20.05
2017-06-29T05:07:00.310Z,20.02
2017-06-29T05:08:00.365Z,20.02
2017-06-29T05:09:00.703Z,20.03
2017-06-29T05:10:00.752Z,20.09
2017-06-29T05:11:00.166Z,20.08
2017-06-29T05:12:00.518Z,20.05
2017-06-29T05:13:00.564Z,20.03
2017-06-29T05:14:00.291Z,20.08
2017-06-29T05:15:00.331Z,20.03
2017-06-29T05:16:00.377Z,20.05
2017-06-29T05:17:00.414Z,20.08
2017-06-29T05:18:00.767Z,20.05
2017-06-29T05:19:00.496Z,20.06
2017-06-29T05:20:00.537Z,20.03
2017-06-29T05:21:00.885Z,20
2017-06-29T05:22:00.613Z,20
2017-06-29T05:23:01.277Z,20.16
2017-06-29T05:24:00.695Z,20.1
2017-06-29T05:25:00.773Z,20.12
2017-06-29T05:26:00.778Z,20.15
2017-06-29T05:27:01.124Z,20.16
2017-06-29T05:28:00.858Z,20.2
2017-06-29T05:29:01.206Z,20.23
2017-06-29T05:30:00.945Z,20.28
2017-06-29T05:31:00.980Z,20.31
2017-06-29T05:32:01.327Z,20.41
2017-06-29T05:33:01.061Z,20.31
2017-06-29T05:34:01.100Z,20.38
2017-06-29T05:35:01.141Z,20.38
2017-06-29T05:36:01.486Z,20.41
2017-06-29T05:37:01.843Z,20.42
2017-06-29T05:38:01.880Z,20.42
2017-06-29T05:39:01.304Z,20.43
2017-06-29T05:40:01.651Z,20.54
2017-06-29T05:41:01.389Z,20.49
2017-06-29T05:42:01.433Z,20.59
2017-06-29T05:43:01.470Z,20.61
2017-06-29T05:44:01.506Z,20.59
2017-06-29T05:45:01.553Z,20.59
2017-06-29T05:46:01.594Z,20.64
2017-06-29T05:47:01.639Z,20.58
2017-06-29T05:48:01.669Z,20.58
2017-06-29T05:49:02.023Z,20.61
2017-06-29T05:50:02.369Z,20.58
2017-06-29T05:51:01.795Z,20.62
2017-06-29T05:52:01.839Z,20.53
2017-06-29T05:53:02.186Z,20.54
2017-06-29T05:54:01.915Z,20.51
2017-06-29T05:55:02.268Z,20.51
2017-06-29T05:56:01.997Z,20.46
2017-06-29T05:57:02.041Z,20.51
2017-06-29T05:58:02.388Z,20.5
2017-06-29T05:59:02.121Z,20.39
2017-06-29T06:00:02.471Z,20.43
2017-06-29T06:01:02.513Z,20.38
2017-06-29T06:02:02.240Z,20.31
2017-06-29T06:03:02.294Z,20.3
2017-06-29T06:04:02.325Z,20.28
2017-06-29T06:05:02.671Z,20.3
2017-06-29T06:06:02.407Z,20.33
2017-06-29T06:07:02.446Z,20.25
2017-06-29T06:08:03.112Z,20.3
2017-06-29T06:09:03.145Z,20.25
2017-06-29T06:10:02.879Z,20.28
2017-06-29T06:11:03.223Z,20.33
2017-06-29T06:12:02.651Z,20.34
2017-06-29T06:13:02.999Z,20.33
2017-06-29T06:14:02.735Z,20.42
2017-06-29T06:15:02.771Z,20.43
2017-06-29T06:16:02.809Z,20.47
2017-06-29T06:17:02.851Z,20.51
2017-06-29T06:18:02.892Z,20.47
2017-06-29T06:19:02.937Z,20.43
2017-06-29T06:20:03.288Z,20.47
2017-06-29T06:21:03.015Z,20.54
2017-06-29T06:22:03.395Z,20.53
2017-06-29T06:23:03.196Z,20.53
2017-06-29T06:24:03.171Z,20.61
2017-06-29T06:25:03.492Z,20.61
2017-06-29T06:26:03.217Z,20.56
2017-06-29T06:27:03.263Z,20.65
2017-06-29T06:28:03.610Z,20.65
2017-06-29T06:29:03.342Z,20.74
2017-06-29T06:30:03.576Z,20.74
2017-06-29T06:31:04.043Z,20.69
2017-06-29T06:32:03.463Z,20.8
2017-06-29T06:33:03.819Z,20.84
2017-06-29T06:34:03.853Z,20.86
2017-06-29T06:35:04.244Z,20.83
2017-06-29T06:36:04.241Z,20.8
2017-06-29T06:37:03.973Z,20.86
2017-06-29T06:38:03.710Z,20.81
2017-06-29T06:39:03.754Z,20.81
2017-06-29T06:40:03.788Z,20.83
2017-06-29T06:41:03.860Z,20.86
2017-06-29T06:42:03.874Z,20.79
2017-06-29T06:43:03.926Z,20.83
2017-06-29T06:44:03.953Z,20.81
2017-06-29T06:45:04.324Z,20.74
2017-06-29T06:46:04.041Z,20.84
2017-06-29T06:47:04.080Z,20.77
2017-06-29T06:48:04.424Z,20.81
2017-06-29T06:49:04.468Z,20.83
2017-06-29T06:50:04.200Z,20.72
2017-06-29T06:51:04.241Z,20.77
2017-06-29T06:52:04.591Z,20.71
2017-06-29T06:53:04.631Z,20.86
2017-06-29T06:54:04.981Z,20.84
2017-06-29T06:55:04.403Z,20.83
2017-06-29T06:56:04.446Z,20.86
2017-06-29T06:57:04.485Z,20.77
2017-06-29T06:58:04.526Z,20.87
2017-06-29T06:59:04.572Z,20.83
2017-06-29T07:00:04.608Z,20.95
2017-06-29T07:01:04.960Z,20.9
2017-06-29T07:02:04.689Z,20.84
2017-06-29T07:03:04.780Z,20.98
2017-06-29T07:04:05.081Z,21.02
2017-06-29T07:05:04.813Z,20.99
2017-06-29T07:06:04.858Z,21.08
2017-06-29T07:07:05.206Z,21.02
2017-06-29T07:08:04.963Z,21.04
2017-06-29T07:09:05.284Z,21.06
2017-06-29T07:10:05.637Z,21.14
2017-06-29T07:11:05.063Z,21.08
2017-06-29T07:12:05.408Z,21.06
2017-06-29T07:13:05.180Z,21.19
2017-06-29T07:14:05.181Z,21.21
2017-06-29T07:15:05.226Z,21.17
2017-06-29T07:16:05.268Z,21.24
2017-06-29T07:17:05.626Z,21.24
2017-06-29T07:18:05.349Z,21.24
2017-06-29T07:19:05.397Z,21.29
2017-06-29T07:20:05.433Z,21.35
2017-06-29T07:21:05.471Z,21.24
2017-06-29T07:22:05.511Z,21.27
2017-06-29T07:23:05.551Z,21.39
2017-06-29T07:24:05.899Z,21.39
2017-06-29T07:25:05.637Z,21.36
2017-06-29T07:26:05.981Z,21.34
2017-06-29T07:27:05.715Z,21.45
2017-06-29T07:28:05.762Z,21.41
2017-06-29T07:29:05.801Z,21.42
2017-06-29T07:30:05.839Z,21.42
2017-06-29T07:31:05.885Z,21.53
2017-06-29T07:32:05.925Z,21.48
2017-06-29T07:33:06.583Z,21.54
2017-06-29T07:34:06.316Z,21.48
2017-06-29T07:35:06.053Z,21.5
2017-06-29T07:36:06.093Z,21.6
2017-06-29T07:37:06.440Z,21.61
2017-06-29T07:38:06.499Z,21.66
2017-06-29T07:39:06.520Z,21.6
2017-06-29T07:40:06.594Z,21.6
2017-06-29T07:41:06.298Z,21.63
2017-06-29T07:42:06.765Z,21.64
2017-06-29T07:43:06.685Z,21.59
2017-06-29T07:44:06.730Z,21.75
2017-06-29T07:45:06.663Z,21.59
2017-06-29T07:46:06.502Z,21.66
2017-06-29T07:47:06.870Z,21.66
2017-06-29T07:48:06.586Z,21.6
2017-06-29T07:49:06.630Z,21.6
2017-06-29T07:50:06.984Z,21.61
2017-06-29T07:51:07.331Z,21.54
2017-06-29T07:52:07.060Z,21.45
2017-06-29T07:53:06.797Z,21.48
2017-06-29T07:54:07.151Z,21.48
2017-06-29T07:55:07.184Z,21.54
2017-06-29T07:56:07.232Z,21.5
2017-06-29T07:57:07.689Z,21.39
2017-06-29T07:58:07.390Z,21.45
2017-06-29T07:59:07.646Z,21.46
2017-06-29T08:00:07.092Z,21.48
2017-06-29T08:01:07.128Z,21.38
2017-06-29T08:02:07.183Z,21.42
2017-06-29T08:03:07.213Z,21.48
2017-06-29T08:04:07.293Z,21.45
2017-06-29T08:05:07.605Z,21.46
2017-06-29T08:06:07.333Z,21.51
2017-06-29T08:07:07.378Z,21.51
2017-06-29T08:08:07.416Z,21.54
2017-06-29T08:09:07.456Z,21.63
2017-06-29T08:10:07.804Z,21.63
2017-06-29T08:11:07.560Z,21.67
2017-06-29T08:12:07.593Z,21.59
2017-06-29T08:13:07.621Z,21.61
2017-06-29T08:14:07.665Z,21.78
2017-06-29T08:15:07.708Z,21.81
2017-06-29T08:16:08.058Z,21.75
2017-06-29T08:17:07.787Z,21.88
2017-06-29T08:18:08.136Z,21.83
2017-06-29T08:19:08.185Z,21.79
2017-06-29T08:20:07.915Z,21.91
2017-06-29T08:21:07.956Z,21.91
2017-06-29T08:22:08.001Z,21.83
2017-06-29T08:23:08.661Z,21.78
2017-06-29T08:24:08.083Z,21.91
2017-06-29T08:25:08.124Z,21.78
2017-06-29T08:26:08.167Z,21.76
2017-06-29T08:27:08.213Z,21.76
2017-06-29T08:28:08.246Z,21.76
2017-06-29T08:29:08.618Z,21.78
2017-06-29T08:30:08.331Z,21.74
2017-06-29T08:31:08.694Z,21.75
2017-06-29T08:32:08.736Z,21.72
2017-06-29T08:33:08.771Z,21.67
2017-06-29T08:34:08.498Z,21.69
2017-06-29T08:35:08.546Z,21.72
2017-06-29T08:36:08.887Z,21.75
2017-06-29T08:37:08.930Z,21.63
2017-06-29T08:38:08.766Z,21.66
2017-06-29T08:39:09.337Z,21.63
2017-06-29T08:40:08.749Z,21.71
2017-06-29T08:41:08.789Z,21.64
2017-06-29T08:42:08.834Z,21.76
2017-06-29T08:43:08.869Z,21.76
2017-06-29T08:44:09.223Z,21.69
2017-06-29T08:45:08.954Z,21.71
2017-06-29T08:46:08.995Z,21.71
2017-06-29T08:47:09.042Z,21.79
2017-06-29T08:48:09.081Z,21.72
2017-06-29T08:49:09.159Z,21.74
2017-06-29T08:50:09.473Z,21.71
2017-06-29T08:51:09.515Z,21.67
2017-06-29T08:52:09.558Z,21.78
2017-06-29T08:53:09.597Z,21.71
2017-06-29T08:54:09.328Z,21.76
2017-06-29T08:55:09.373Z,21.72
2017-06-29T08:56:09.723Z,21.78
2017-06-29T08:57:09.456Z,21.85
2017-06-29T08:58:09.494Z,21.79
2017-06-29T08:59:09.535Z,21.82
2017-06-29T09:00:09.894Z,21.92
2017-06-29T09:01:09.625Z,21.88
2017-06-29T09:02:09.666Z,21.9
2017-06-29T09:03:09.705Z,21.95
2017-06-29T09:04:10.056Z,22.01
2017-06-29T09:05:10.093Z,21.99
2017-06-29T09:06:09.828Z,22.02
2017-06-29T09:07:10.175Z,22.02
2017-06-29T09:08:10.227Z,22.04
2017-06-29T09:09:09.957Z,21.95
2017-06-29T09:10:09.997Z,22.06
2017-06-29T09:11:10.038Z,21.92
2017-06-29T09:12:10.080Z,21.92
2017-06-29T09:13:10.121Z,21.88
2017-06-29T09:14:10.161Z,21.97
2017-06-29T09:15:10.207Z,21.97
2017-06-29T09:16:10.554Z,21.97
2017-06-29T09:17:10.291Z,21.94
2017-06-29T09:18:10.946Z,22.04
2017-06-29T09:19:10.372Z,22.06
2017-06-29T09:20:10.414Z,22.04
2017-06-29T09:21:10.457Z,21.94
2017-06-29T09:22:10.804Z,21.99
2017-06-29T09:23:10.845Z,22.02
2017-06-29T09:24:10.588Z,21.99
2017-06-29T09:25:10.623Z,21.98
2017-06-29T09:26:11.281Z,22.12
2017-06-29T09:27:10.707Z,21.95
2017-06-29T09:28:10.752Z,21.95
2017-06-29T09:29:11.102Z,21.97
2017-06-29T09:30:10.829Z,22.06
2017-06-29T09:31:10.874Z,22.09
2017-06-29T09:32:10.912Z,22.06
2017-06-29T09:33:10.957Z,22.07
2017-06-29T09:34:10.999Z,22.02
2017-06-29T09:35:11.346Z,22.07
2017-06-29T09:36:11.695Z,22.04
2017-06-29T09:37:11.130Z,21.97
2017-06-29T09:38:11.169Z,21.99
2017-06-29T09:39:11.206Z,22.02
2017-06-29T09:40:11.256Z,21.99
2017-06-29T09:41:11.289Z,22.04
2017-06-29T09:42:11.335Z,22.01
2017-06-29T09:43:11.377Z,21.99
2017-06-29T09:44:11.419Z,22.04
2017-06-29T09:45:11.456Z,22.01
2017-06-29T09:46:11.499Z,22.01
2017-06-29T09:47:11.543Z,21.94
2017-06-29T09:48:11.581Z,21.91
2017-06-29T09:49:11.622Z,21.85
2017-06-29T09:50:11.974Z,21.85
2017-06-29T09:51:11.710Z,21.9
2017-06-29T09:52:11.748Z,21.81
2017-06-29T09:53:11.794Z,21.78
2017-06-29T09:54:11.833Z,21.64
2017-06-29T09:55:12.187Z,21.75
2017-06-29T09:56:11.917Z,21.76
2017-06-29T09:57:11.960Z,21.74
2017-06-29T09:58:12.000Z,21.61
2017-06-29T09:59:12.044Z,21.69
2017-06-29T10:00:12.083Z,21.61
2017-06-29T10:01:12.127Z,21.6
2017-06-29T10:02:12.473Z,21.71
2017-06-29T10:03:12.204Z,21.63
2017-06-29T10:04:12.248Z,21.59
2017-06-29T10:05:12.296Z,21.6
2017-06-29T10:06:12.334Z,21.61
2017-06-29T10:07:12.372Z,21.57
2017-06-29T10:08:12.722Z,21.56
2017-06-29T10:09:12.457Z,21.64
2017-06-29T10:10:12.498Z,21.6
2017-06-29T10:11:12.851Z,21.5
2017-06-29T10:12:12.581Z,21.54
2017-06-29T10:13:12.622Z,21.44
2017-06-29T10:14:12.665Z,21.38
2017-06-29T10:15:13.010Z,21.36
2017-06-29T10:16:12.748Z,21.36
2017-06-29T10:17:13.099Z,21.36
2017-06-29T10:18:13.134Z,21.26
2017-06-29T10:19:13.017Z,21.24
2017-06-29T10:20:13.224Z,21.26
2017-06-29T10:21:12.949Z,21.2
2017-06-29T10:22:13.142Z,21.23
2017-06-29T10:23:13.034Z,21.11
2017-06-29T10:24:13.077Z,21.11
2017-06-29T10:25:13.437Z,21.09
2017-06-29T10:26:13.463Z,21.09
2017-06-29T10:27:13.504Z,21.11
2017-06-29T10:28:13.239Z,21.09
2017-06-29T10:29:13.278Z,21.17
2017-06-29T10:30:13.320Z,21.14
2017-06-29T10:31:13.671Z,21.09
2017-06-29T10:32:14.017Z,21.09
2017-06-29T10:33:13.488Z,21.11
2017-06-29T10:34:13.481Z,21.09
2017-06-29T10:35:13.527Z,21.05
2017-06-29T10:36:13.568Z,21.09
2017-06-29T10:37:13.606Z,21.02
2017-06-29T10:38:13.953Z,21.02
2017-06-29T10:39:13.994Z,20.98
2017-06-29T10:40:13.728Z,20.99
2017-06-29T10:41:13.775Z,20.95
2017-06-29T10:42:14.117Z,20.99
2017-06-29T10:43:14.161Z,21.01
2017-06-29T10:44:14.211Z,21.02
2017-06-29T10:45:14.241Z,20.95
2017-06-29T10:46:14.297Z,20.95
2017-06-29T10:47:14.322Z,20.95
2017-06-29T10:48:14.063Z,20.95
2017-06-29T10:49:14.405Z,20.84
2017-06-29T10:50:14.448Z,20.87
2017-06-29T10:51:14.485Z,20.87
2017-06-29T10:52:14.832Z,20.72
2017-06-29T10:53:14.261Z,20.71
2017-06-29T10:54:14.609Z,20.74
2017-06-29T10:55:14.649Z,20.69
2017-06-29T10:56:14.384Z,20.69
2017-06-29T10:57:14.434Z,20.64
2017-06-29T10:58:14.466Z,20.59
2017-06-29T10:59:15.064Z,20.54
2017-06-29T11:00:14.543Z,20.64
2017-06-29T11:01:14.588Z,20.59
2017-06-29T11:02:14.936Z,20.58
2017-06-29T11:03:14.672Z,20.56
2017-06-29T11:04:14.708Z,20.5
2017-06-29T11:05:14.751Z,20.56
2017-06-29T11:06:15.103Z,20.56
2017-06-29T11:07:14.831Z,20.42
2017-06-29T11:08:14.871Z,20.46
2017-06-29T11:09:14.910Z,20.5
2017-06-29T11:10:15.022Z,20.42
2017-06-29T11:11:15.304Z,20.47
2017-06-29T11:12:15.033Z,20.47
2017-06-29T11:13:15.075Z,20.42
2017-06-29T11:14:15.425Z,20.39
2017-06-29T11:15:15.154Z,20.38
2017-06-29T11:16:15.385Z,20.27
2017-06-29T11:17:15.234Z,20.31
2017-06-29T11:18:15.277Z,20.39
2017-06-29T11:19:15.630Z,20.28
2017-06-29T11:20:15.357Z,20.27
2017-06-29T11:21:15.399Z,20.27
2017-06-29T11:22:15.441Z,20.25
2017-06-29T11:23:15.479Z,20.16
2017-06-29T11:24:15.524Z,20.2
2017-06-29T11:25:15.563Z,20.15
2017-06-29T11:26:16.217Z,20.05
2017-06-29T11:27:15.640Z,20.03
2017-06-29T11:28:15.996Z,20.03
2017-06-29T11:29:15.728Z,20
2017-06-29T11:30:15.766Z,20.08
2017-06-29T11:31:16.110Z,20.02
2017-06-29T11:32:16.466Z,20.06
2017-06-29T11:33:16.199Z,20.08
2017-06-29T11:34:16.240Z,20.08
2017-06-29T11:35:16.323Z,20.06
2017-06-29T11:36:16.007Z,20.03
2017-06-29T11:37:16.365Z,19.93
2017-06-29T11:38:16.702Z,20
2017-06-29T11:39:16.443Z,20.02
2017-06-29T11:40:16.177Z,20.05
2017-06-29T11:41:16.210Z,20.03
2017-06-29T11:42:16.565Z,20.02
2017-06-29T11:43:16.291Z,20.03
2017-06-29T11:44:16.644Z,20.06
2017-06-29T11:45:16.688Z,20.02
2017-06-29T11:46:16.417Z,20
2017-06-29T11:47:16.766Z,20.08
2017-06-29T11:48:16.496Z,20.16
2017-06-29T11:49:16.545Z,20.21
2017-06-29T11:50:16.589Z,20.21
2017-06-29T11:51:16.618Z,20.03
2017-06-29T11:52:16.958Z,20.02
2017-06-29T11:53:16.696Z,20.06
2017-06-29T11:54:17.051Z,20.1
2017-06-29T11:55:16.780Z,20.03
2017-06-29T11:56:16.814Z,20.1
2017-06-29T11:57:16.857Z,20.03
2017-06-29T11:58:16.896Z,20.06
2017-06-29T11:59:16.937Z,20.02
2017-06-29T12:00:16.983Z,19.97
2017-06-29T12:01:17.025Z,19.95
2017-06-29T12:02:17.365Z,19.93
2017-06-29T12:03:17.413Z,19.94
2017-06-29T12:04:17.139Z,19.94
2017-06-29T12:05:17.492Z,19.86
2017-06-29T12:06:17.221Z,19.88
2017-06-29T12:07:17.267Z,19.91
2017-06-29T12:08:17.335Z,19.84
2017-06-29T12:09:17.658Z,19.87
2017-06-29T12:10:17.387Z,19.88
2017-06-29T12:11:17.737Z,19.83
2017-06-29T12:12:17.780Z,19.86
2017-06-29T12:13:17.523Z,19.79
2017-06-29T12:14:17.547Z,19.87
2017-06-29T12:15:17.583Z,19.83
2017-06-29T12:16:17.623Z,19.83
2017-06-29T12:17:17.665Z,19.78
2017-06-29T12:18:17.712Z,19.86
2017-06-29T12:19:17.746Z,19.84
2017-06-29T12:20:17.804Z,19.79
2017-06-29T12:21:18.140Z,19.76
2017-06-29T12:22:17.867Z,19.86
2017-06-29T12:23:18.533Z,19.87
2017-06-29T12:24:17.965Z,19.8
2017-06-29T12:25:17.993Z,19.87
2017-06-29T12:26:18.027Z,19.83
2017-06-29T12:27:18.072Z,19.87
2017-06-29T12:28:18.109Z,19.8
2017-06-29T12:29:18.156Z,19.87
2017-06-29T12:30:18.211Z,19.87
2017-06-29T12:31:18.237Z,19.93
2017-06-29T12:32:18.281Z,19.84
2017-06-29T12:33:18.309Z,19.91
2017-06-29T12:34:18.356Z,19.88
2017-06-29T12:35:18.391Z,19.83
2017-06-29T12:36:18.746Z,19.88
2017-06-29T12:37:18.479Z,19.86
2017-06-29T12:38:18.831Z,19.84
2017-06-29T12:39:18.560Z,19.87
2017-06-29T12:40:18.614Z,19.87
2017-06-29T12:41:18.634Z,19.94
2017-06-29T12:42:18.990Z,19.9
2017-06-29T12:43:18.715Z,19.95
2017-06-29T12:44:18.759Z,19.84
2017-06-29T12:45:18.799Z,19.93
2017-06-29T12:46:19.152Z,19.97
2017-06-29T12:47:18.884Z,19.9
2017-06-29T12:48:18.922Z,19.87
2017-06-29T12:49:18.960Z,19.93
2017-06-29T12:50:19.312Z,20
2017-06-29T12:51:19.045Z,20
2017-06-29T12:52:19.389Z,19.97
2017-06-29T12:53:19.435Z,19.9
2017-06-29T12:54:19.162Z,19.91
2017-06-29T12:55:19.211Z,19.97
2017-06-29T12:56:19.549Z,19.87